Terminal Aerodrome Forecast
Issued by NWS

Home | Current Version | Previous Version | Text Only | Print | Product List | Glossary On
Versions: 1 2 3 4 5 6 7 8 9 10 11 12 13 14 15 16 17
000
FTUS43 KMQT 291136
TAFSAW
TAF
KSAW 291136Z 2912/3012 19010KT P6SM -SHRA BKN130
     FM291700 20010G17KT P6SM -SHRA OVC045
     FM292200 21007KT P6SM -SHRA OVC030
     FM300100 27005KT 5SM -SHRA BR OVC018
     FM300300 35007KT 5SM -SHRA BR OVC008
     FM300500 35010G17KT P6SM -SHRA OVC012
     FM300900 35013G21KT P6SM -SHRA OVC022
     FM301000 35013G20KT P6SM BKN035=

USA.gov is the U.S. government's official web portal to all federal, state and local government web resources and services.